sensor_id;sensor_type;location;lat;lon;timestamp;temperature;humidity
59128;DHT22;44912;52.754;5.994;2023-03-23T00:00:37;11.90;99.90
59128;DHT22;44912;52.754;5.994;2023-03-23T00:03:04;11.90;99.90
59128;DHT22;44912;52.754;5.994;2023-03-23T00:05:29;11.90;99.90
59128;DHT22;44912;52.754;5.994;2023-03-23T00:07:55;11.90;99.90
59128;DHT22;44912;52.754;5.994;2023-03-23T00:10:20;11.90;99.90
59128;DHT22;44912;52.754;5.994;2023-03-23T00:12:46;11.90;99.90
59128;DHT22;44912;52.754;5.994;2023-03-23T00:15:15;11.90;99.90
59128;DHT22;44912;52.754;5.994;2023-03-23T00:17:42;11.90;99.90
59128;DHT22;44912;52.754;5.994;2023-03-23T00:20:09;11.90;99.90
59128;DHT22;44912;52.754;5.994;2023-03-23T00:22:37;11.90;99.90
59128;DHT22;44912;52.754;5.994;2023-03-23T00:25:06;11.90;99.90
59128;DHT22;44912;52.754;5.994;2023-03-23T00:27:33;11.90;99.90
59128;DHT22;44912;52.754;5.994;2023-03-23T00:29:59;11.90;99.90
59128;DHT22;44912;52.754;5.994;2023-03-23T00:32:25;11.90;99.90
59128;DHT22;44912;52.754;5.994;2023-03-23T00:34:53;11.90;99.90
59128;DHT22;44912;52.754;5.994;2023-03-23T00:37:19;11.90;99.90
59128;DHT22;44912;52.754;5.994;2023-03-23T00:39:44;11.90;99.90
59128;DHT22;44912;52.754;5.994;2023-03-23T00:42:13;11.90;99.90
59128;DHT22;44912;52.754;5.994;2023-03-23T00:44:39;11.90;99.90
59128;DHT22;44912;52.754;5.994;2023-03-23T00:47:06;12.00;99.90
59128;DHT22;44912;52.754;5.994;2023-03-23T00:49:33;12.00;99.90
59128;DHT22;44912;52.754;5.994;2023-03-23T00:52:00;12.00;99.90
59128;DHT22;44912;52.754;5.994;2023-03-23T00:54:26;12.00;99.90
59128;DHT22;44912;52.754;5.994;2023-03-23T00:56:52;12.00;99.90
59128;DHT22;44912;52.754;5.994;2023-03-23T00:59:18;12.00;99.90
59128;DHT22;44912;52.754;5.994;2023-03-23T01:01:44;12.00;99.90
59128;DHT22;44912;52.754;5.994;2023-03-23T01:04:10;12.00;99.90
59128;DHT22;44912;52.754;5.994;2023-03-23T01:06:39;12.00;99.90
59128;DHT22;44912;52.754;5.994;2023-03-23T01:09:10;12.00;99.90
59128;DHT22;44912;52.754;5.994;2023-03-23T01:11:35;12.00;99.90
59128;DHT22;44912;52.754;5.994;2023-03-23T01:14:02;11.90;99.90
59128;DHT22;44912;52.754;5.994;2023-03-23T01:16:28;11.90;99.90
59128;DHT22;44912;52.754;5.994;2023-03-23T01:18:54;11.90;99.90
59128;DHT22;44912;52.754;5.994;2023-03-23T01:21:20;11.80;99.90
59128;DHT22;44912;52.754;5.994;2023-03-23T01:23:46;11.90;99.90
59128;DHT22;44912;52.754;5.994;2023-03-23T01:26:15;11.90;99.90
59128;DHT22;44912;52.754;5.994;2023-03-23T01:28:41;11.90;99.90
59128;DHT22;44912;52.754;5.994;2023-03-23T01:31:10;11.90;99.90
59128;DHT22;44912;52.754;5.994;2023-03-23T01:33:38;11.90;99.90
59128;DHT22;44912;52.754;5.994;2023-03-23T01:36:16;11.90;99.90
59128;DHT22;44912;52.754;5.994;2023-03-23T01:38:43;11.90;99.90
59128;DHT22;44912;52.754;5.994;2023-03-23T01:41:09;11.90;99.90
59128;DHT22;44912;52.754;5.994;2023-03-23T01:43:35;11.90;99.90
59128;DHT22;44912;52.754;5.994;2023-03-23T01:46:01;11.90;99.90
59128;DHT22;44912;52.754;5.994;2023-03-23T01:48:31;11.90;99.90
59128;DHT22;44912;52.754;5.994;2023-03-23T01:51:10;11.80;99.90
59128;DHT22;44912;52.754;5.994;2023-03-23T01:53:52;11.90;99.90
59128;DHT22;44912;52.754;5.994;2023-03-23T01:56:22;11.90;99.90
59128;DHT22;44912;52.754;5.994;2023-03-23T01:58:53;11.90;99.90
59128;DHT22;44912;52.754;5.994;2023-03-23T02:01:21;11.80;99.90
59128;DHT22;44912;52.754;5.994;2023-03-23T02:03:47;11.80;99.90
59128;DHT22;44912;52.754;5.994;2023-03-23T02:06:13;11.80;99.90
59128;DHT22;44912;52.754;5.994;2023-03-23T02:08:41;11.80;99.90
59128;DHT22;44912;52.754;5.994;2023-03-23T02:11:17;11.80;99.90
59128;DHT22;44912;52.754;5.994;2023-03-23T02:13:43;11.80;99.90
59128;DHT22;44912;52.754;5.994;2023-03-23T02:16:22;11.80;99.90
59128;DHT22;44912;52.754;5.994;2023-03-23T02:26:56;11.80;99.90
59128;DHT22;44912;52.754;5.994;2023-03-23T02:32:43;11.80;99.90
59128;DHT22;44912;52.754;5.994;2023-03-23T02:35:24;11.80;99.90
59128;DHT22;44912;52.754;5.994;2023-03-23T02:38:14;11.80;99.90
59128;DHT22;44912;52.754;5.994;2023-03-23T02:40:43;11.80;99.90
59128;DHT22;44912;52.754;5.994;2023-03-23T02:43:15;11.80;99.90
59128;DHT22;44912;52.754;5.994;2023-03-23T02:45:44;11.80;99.90
59128;DHT22;44912;52.754;5.994;2023-03-23T02:48:12;11.80;99.90
59128;DHT22;44912;52.754;5.994;2023-03-23T02:50:43;11.80;99.90
59128;DHT22;44912;52.754;5.994;2023-03-23T02:53:12;11.90;99.90
59128;DHT22;44912;52.754;5.994;2023-03-23T02:55:41;11.90;99.90
59128;DHT22;44912;52.754;5.994;2023-03-23T02:58:09;11.90;99.90
59128;DHT22;44912;52.754;5.994;2023-03-23T03:00:35;11.80;99.90
59128;DHT22;44912;52.754;5.994;2023-03-23T03:03:03;11.90;99.90
59128;DHT22;44912;52.754;5.994;2023-03-23T03:08:37;11.90;99.90
59128;DHT22;44912;52.754;5.994;2023-03-23T03:11:09;11.90;99.90
59128;DHT22;44912;52.754;5.994;2023-03-23T03:13:50;11.90;99.90
59128;DHT22;44912;52.754;5.994;2023-03-23T03:19:09;11.90;99.90
59128;DHT22;44912;52.754;5.994;2023-03-23T03:21:39;11.90;99.90
59128;DHT22;44912;52.754;5.994;2023-03-23T03:24:06;11.90;99.90
59128;DHT22;44912;52.754;5.994;2023-03-23T03:26:40;11.90;99.90
59128;DHT22;44912;52.754;5.994;2023-03-23T03:29:14;11.90;99.90
59128;DHT22;44912;52.754;5.994;2023-03-23T03:31:43;11.90;99.90
59128;DHT22;44912;52.754;5.994;2023-03-23T03:34:11;11.90;99.90
59128;DHT22;44912;52.754;5.994;2023-03-23T03:36:37;11.90;99.90
59128;DHT22;44912;52.754;5.994;2023-03-23T03:39:06;11.90;99.90
59128;DHT22;44912;52.754;5.994;2023-03-23T03:41:37;11.90;99.90
59128;DHT22;44912;52.754;5.994;2023-03-23T03:44:04;11.90;99.90
59128;DHT22;44912;52.754;5.994;2023-03-23T03:46:30;11.90;99.90
59128;DHT22;44912;52.754;5.994;2023-03-23T03:49:00;11.90;99.90
59128;DHT22;44912;52.754;5.994;2023-03-23T03:51:27;11.90;99.90
59128;DHT22;44912;52.754;5.994;2023-03-23T03:53:54;11.90;99.90
59128;DHT22;44912;52.754;5.994;2023-03-23T03:56:19;11.90;99.90
59128;DHT22;44912;52.754;5.994;2023-03-23T03:58:48;12.00;99.90
59128;DHT22;44912;52.754;5.994;2023-03-23T04:01:14;12.00;99.90
59128;DHT22;44912;52.754;5.994;2023-03-23T04:03:40;12.00;99.90
59128;DHT22;44912;52.754;5.994;2023-03-23T04:06:06;12.00;99.90
59128;DHT22;44912;52.754;5.994;2023-03-23T04:08:33;12.10;99.90
59128;DHT22;44912;52.754;5.994;2023-03-23T04:11:00;12.10;99.90
59128;DHT22;44912;52.754;5.994;2023-03-23T04:13:25;12.10;99.90
59128;DHT22;44912;52.754;5.994;2023-03-23T04:15:51;12.10;99.90
59128;DHT22;44912;52.754;5.994;2023-03-23T04:18:17;12.10;99.90
59128;DHT22;44912;52.754;5.994;2023-03-23T04:20:47;12.00;99.90
59128;DHT22;44912;52.754;5.994;2023-03-23T04:23:18;12.00;99.90
59128;DHT22;44912;52.754;5.994;2023-03-23T04:25:49;11.90;99.90
59128;DHT22;44912;52.754;5.994;2023-03-23T04:28:16;10.80;99.90
59128;DHT22;44912;52.754;5.994;2023-03-23T04:30:42;10.20;99.90
59128;DHT22;44912;52.754;5.994;2023-03-23T04:33:09;9.90;99.90
59128;DHT22;44912;52.754;5.994;2023-03-23T04:35:41;9.90;99.90
59128;DHT22;44912;52.754;5.994;2023-03-23T04:38:08;10.00;99.90
59128;DHT22;44912;52.754;5.994;2023-03-23T04:40:38;10.10;99.90
59128;DHT22;44912;52.754;5.994;2023-03-23T04:43:05;10.10;99.90
59128;DHT22;44912;52.754;5.994;2023-03-23T04:45:33;10.30;99.90
59128;DHT22;44912;52.754;5.994;2023-03-23T04:47:59;10.40;99.90
59128;DHT22;44912;52.754;5.994;2023-03-23T04:50:28;10.40;99.90
59128;DHT22;44912;52.754;5.994;2023-03-23T04:52:56;10.50;99.90
59128;DHT22;44912;52.754;5.994;2023-03-23T04:55:24;10.50;99.90
59128;DHT22;44912;52.754;5.994;2023-03-23T04:57:50;10.50;99.90
59128;DHT22;44912;52.754;5.994;2023-03-23T05:00:16;10.60;99.90
59128;DHT22;44912;52.754;5.994;2023-03-23T05:02:46;10.60;99.90
59128;DHT22;44912;52.754;5.994;2023-03-23T05:05:12;10.70;99.90
59128;DHT22;44912;52.754;5.994;2023-03-23T05:07:39;10.70;99.90
59128;DHT22;44912;52.754;5.994;2023-03-23T05:10:06;10.70;99.90
59128;DHT22;44912;52.754;5.994;2023-03-23T05:12:33;10.80;99.90
59128;DHT22;44912;52.754;5.994;2023-03-23T05:14:58;10.90;99.90
59128;DHT22;44912;52.754;5.994;2023-03-23T05:17:24;11.00;99.90
59128;DHT22;44912;52.754;5.994;2023-03-23T05:19:51;11.00;99.90
59128;DHT22;44912;52.754;5.994;2023-03-23T05:22:17;11.00;99.90
59128;DHT22;44912;52.754;5.994;2023-03-23T05:24:43;10.90;99.90
59128;DHT22;44912;52.754;5.994;2023-03-23T05:27:09;10.90;99.90
59128;DHT22;44912;52.754;5.994;2023-03-23T05:29:35;10.90;99.90
59128;DHT22;44912;52.754;5.994;2023-03-23T05:32:05;10.90;99.90
59128;DHT22;44912;52.754;5.994;2023-03-23T05:34:31;10.90;99.90
59128;DHT22;44912;52.754;5.994;2023-03-23T05:36:58;10.90;99.90
59128;DHT22;44912;52.754;5.994;2023-03-23T05:39:25;10.90;99.90
59128;DHT22;44912;52.754;5.994;2023-03-23T05:41:51;10.90;99.90
59128;DHT22;44912;52.754;5.994;2023-03-23T05:44:18;10.90;99.90
59128;DHT22;44912;52.754;5.994;2023-03-23T05:46:44;10.90;99.90
59128;DHT22;44912;52.754;5.994;2023-03-23T05:49:10;10.90;99.90
59128;DHT22;44912;52.754;5.994;2023-03-23T05:51:35;10.90;99.90
59128;DHT22;44912;52.754;5.994;2023-03-23T05:54:01;10.80;99.90
59128;DHT22;44912;52.754;5.994;2023-03-23T05:56:28;10.90;99.90
59128;DHT22;44912;52.754;5.994;2023-03-23T05:58:55;10.90;99.90
59128;DHT22;44912;52.754;5.994;2023-03-23T06:01:21;10.90;99.90
59128;DHT22;44912;52.754;5.994;2023-03-23T06:03:46;11.00;99.90
59128;DHT22;44912;52.754;5.994;2023-03-23T06:06:14;11.00;99.90
59128;DHT22;44912;52.754;5.994;2023-03-23T06:08:39;11.00;99.90
59128;DHT22;44912;52.754;5.994;2023-03-23T06:11:05;11.00;99.90
59128;DHT22;44912;52.754;5.994;2023-03-23T06:13:31;11.00;99.90
59128;DHT22;44912;52.754;5.994;2023-03-23T06:15:57;11.00;99.90
59128;DHT22;44912;52.754;5.994;2023-03-23T06:18:23;11.00;99.90
59128;DHT22;44912;52.754;5.994;2023-03-23T06:20:50;11.00;99.90
59128;DHT22;44912;52.754;5.994;2023-03-23T06:23:16;10.90;99.90
59128;DHT22;44912;52.754;5.994;2023-03-23T06:25:42;11.00;99.90
59128;DHT22;44912;52.754;5.994;2023-03-23T06:28:07;10.90;99.90
59128;DHT22;44912;52.754;5.994;2023-03-23T06:30:35;10.90;99.90
59128;DHT22;44912;52.754;5.994;2023-03-23T06:33:01;11.00;99.90
59128;DHT22;44912;52.754;5.994;2023-03-23T06:35:27;11.00;99.90
59128;DHT22;44912;52.754;5.994;2023-03-23T06:37:53;11.00;99.90
59128;DHT22;44912;52.754;5.994;2023-03-23T06:40:19;11.10;99.90
59128;DHT22;44912;52.754;5.994;2023-03-23T06:42:45;11.10;99.90
59128;DHT22;44912;52.754;5.994;2023-03-23T06:45:11;11.10;99.90
59128;DHT22;44912;52.754;5.994;2023-03-23T06:47:36;11.10;99.90
59128;DHT22;44912;52.754;5.994;2023-03-23T06:50:02;11.20;99.90
59128;DHT22;44912;52.754;5.994;2023-03-23T06:52:28;11.20;99.90
59128;DHT22;44912;52.754;5.994;2023-03-23T06:54:54;11.20;99.90
59128;DHT22;44912;52.754;5.994;2023-03-23T06:57:20;11.20;99.90
59128;DHT22;44912;52.754;5.994;2023-03-23T06:59:45;11.20;99.90
59128;DHT22;44912;52.754;5.994;2023-03-23T07:02:12;11.20;99.90
59128;DHT22;44912;52.754;5.994;2023-03-23T07:04:42;11.20;99.90
59128;DHT22;44912;52.754;5.994;2023-03-23T07:07:09;11.30;99.90
59128;DHT22;44912;52.754;5.994;2023-03-23T07:09:36;11.30;99.90
59128;DHT22;44912;52.754;5.994;2023-03-23T07:12:02;11.30;99.90
59128;DHT22;44912;52.754;5.994;2023-03-23T07:14:28;11.40;99.90
59128;DHT22;44912;52.754;5.994;2023-03-23T07:16:54;11.40;99.90
59128;DHT22;44912;52.754;5.994;2023-03-23T07:19:20;11.40;99.90
59128;DHT22;44912;52.754;5.994;2023-03-23T07:21:45;11.40;99.90
59128;DHT22;44912;52.754;5.994;2023-03-23T07:24:12;11.40;99.90
59128;DHT22;44912;52.754;5.994;2023-03-23T07:26:40;11.40;99.90
59128;DHT22;44912;52.754;5.994;2023-03-23T07:29:07;11.40;99.90
59128;DHT22;44912;52.754;5.994;2023-03-23T07:31:33;11.40;99.90
59128;DHT22;44912;52.754;5.994;2023-03-23T07:33:58;11.40;99.90
59128;DHT22;44912;52.754;5.994;2023-03-23T07:36:24;11.40;99.90
59128;DHT22;44912;52.754;5.994;2023-03-23T07:38:51;11.50;99.90
59128;DHT22;44912;52.754;5.994;2023-03-23T07:41:16;11.50;99.90
59128;DHT22;44912;52.754;5.994;2023-03-23T07:43:42;11.50;99.90
59128;DHT22;44912;52.754;5.994;2023-03-23T07:46:08;11.50;99.90
59128;DHT22;44912;52.754;5.994;2023-03-23T07:48:34;11.60;99.90
59128;DHT22;44912;52.754;5.994;2023-03-23T07:50:59;11.60;99.90
59128;DHT22;44912;52.754;5.994;2023-03-23T07:53:25;11.60;99.90
59128;DHT22;44912;52.754;5.994;2023-03-23T07:55:51;11.60;99.90
59128;DHT22;44912;52.754;5.994;2023-03-23T07:58:17;11.50;99.90
59128;DHT22;44912;52.754;5.994;2023-03-23T08:00:48;11.50;99.90
59128;DHT22;44912;52.754;5.994;2023-03-23T08:03:15;11.60;99.90
59128;DHT22;44912;52.754;5.994;2023-03-23T08:05:41;11.60;99.90
59128;DHT22;44912;52.754;5.994;2023-03-23T08:08:08;11.60;99.90
59128;DHT22;44912;52.754;5.994;2023-03-23T08:10:34;11.60;99.90
59128;DHT22;44912;52.754;5.994;2023-03-23T08:13:01;11.70;99.90
59128;DHT22;44912;52.754;5.994;2023-03-23T08:15:28;11.70;99.90
59128;DHT22;44912;52.754;5.994;2023-03-23T08:17:54;11.70;99.90
59128;DHT22;44912;52.754;5.994;2023-03-23T08:20:20;11.70;99.90
59128;DHT22;44912;52.754;5.994;2023-03-23T08:22:53;11.80;99.90
59128;DHT22;44912;52.754;5.994;2023-03-23T08:25:21;11.80;99.90
59128;DHT22;44912;52.754;5.994;2023-03-23T08:27:47;11.80;99.90
59128;DHT22;44912;52.754;5.994;2023-03-23T08:30:16;11.90;99.90
59128;DHT22;44912;52.754;5.994;2023-03-23T08:32:42;12.00;99.90
59128;DHT22;44912;52.754;5.994;2023-03-23T08:35:09;12.10;99.90
59128;DHT22;44912;52.754;5.994;2023-03-23T08:37:36;12.00;99.90
59128;DHT22;44912;52.754;5.994;2023-03-23T08:40:03;11.90;99.90
59128;DHT22;44912;52.754;5.994;2023-03-23T08:42:39;11.80;99.90
59128;DHT22;44912;52.754;5.994;2023-03-23T08:45:06;11.70;99.90
59128;DHT22;44912;52.754;5.994;2023-03-23T08:47:33;11.60;99.90
59128;DHT22;44912;52.754;5.994;2023-03-23T08:49:59;11.60;99.90
59128;DHT22;44912;52.754;5.994;2023-03-23T08:52:25;11.60;99.90
59128;DHT22;44912;52.754;5.994;2023-03-23T08:54:51;11.70;99.90
59128;DHT22;44912;52.754;5.994;2023-03-23T08:57:16;11.70;99.90
59128;DHT22;44912;52.754;5.994;2023-03-23T08:59:43;11.90;99.90
59128;DHT22;44912;52.754;5.994;2023-03-23T09:02:10;12.10;99.90
59128;DHT22;44912;52.754;5.994;2023-03-23T09:04:40;12.20;99.90
59128;DHT22;44912;52.754;5.994;2023-03-23T09:07:11;12.30;99.90
59128;DHT22;44912;52.754;5.994;2023-03-23T09:09:40;12.50;99.90
59128;DHT22;44912;52.754;5.994;2023-03-23T09:12:06;12.70;99.90
59128;DHT22;44912;52.754;5.994;2023-03-23T09:14:36;12.80;99.90
59128;DHT22;44912;52.754;5.994;2023-03-23T09:17:03;12.80;99.90
59128;DHT22;44912;52.754;5.994;2023-03-23T09:19:30;12.80;99.90
59128;DHT22;44912;52.754;5.994;2023-03-23T09:21:56;12.80;99.90
59128;DHT22;44912;52.754;5.994;2023-03-23T09:24:22;12.90;99.90
59128;DHT22;44912;52.754;5.994;2023-03-23T09:26:47;13.00;99.90
59128;DHT22;44912;52.754;5.994;2023-03-23T09:29:13;12.90;99.90
59128;DHT22;44912;52.754;5.994;2023-03-23T09:31:39;12.90;99.90
59128;DHT22;44912;52.754;5.994;2023-03-23T09:34:09;12.70;99.90
59128;DHT22;44912;52.754;5.994;2023-03-23T09:36:37;12.60;99.90
59128;DHT22;44912;52.754;5.994;2023-03-23T09:39:07;12.60;99.90
59128;DHT22;44912;52.754;5.994;2023-03-23T09:41:58;12.70;99.90
59128;DHT22;44912;52.754;5.994;2023-03-23T09:47:42;12.90;99.90
59128;DHT22;44912;52.754;5.994;2023-03-23T09:50:13;13.10;99.90
59128;DHT22;44912;52.754;5.994;2023-03-23T09:55:07;13.40;99.90
59128;DHT22;44912;52.754;5.994;2023-03-23T09:58:20;13.50;99.90
59128;DHT22;44912;52.754;5.994;2023-03-23T10:01:12;13.60;99.90
59128;DHT22;44912;52.754;5.994;2023-03-23T10:03:45;13.60;99.90
59128;DHT22;44912;52.754;5.994;2023-03-23T10:06:17;13.70;99.90
59128;DHT22;44912;52.754;5.994;2023-03-23T10:08:50;13.80;99.90
59128;DHT22;44912;52.754;5.994;2023-03-23T10:11:42;13.90;99.90
59128;DHT22;44912;52.754;5.994;2023-03-23T10:16:43;13.80;99.90
59128;DHT22;44912;52.754;5.994;2023-03-23T10:21:54;13.60;99.90
59128;DHT22;44912;52.754;5.994;2023-03-23T10:24:28;13.50;99.90
59128;DHT22;44912;52.754;5.994;2023-03-23T10:29:39;13.60;99.90
59128;DHT22;44912;52.754;5.994;2023-03-23T10:32:17;13.70;99.90
59128;DHT22;44912;52.754;5.994;2023-03-23T10:35:03;13.50;99.90
59128;DHT22;44912;52.754;5.994;2023-03-23T10:37:34;13.30;99.90
59128;DHT22;44912;52.754;5.994;2023-03-23T10:40:03;13.30;99.90
59128;DHT22;44912;52.754;5.994;2023-03-23T10:42:36;13.60;99.90
59128;DHT22;44912;52.754;5.994;2023-03-23T10:45:25;13.80;99.90
59128;DHT22;44912;52.754;5.994;2023-03-23T10:50:30;13.90;99.90
59128;DHT22;44912;52.754;5.994;2023-03-23T10:52:58;13.70;99.90
59128;DHT22;44912;52.754;5.994;2023-03-23T10:55:38;13.70;99.90
59128;DHT22;44912;52.754;5.994;2023-03-23T10:58:08;13.90;99.90
59128;DHT22;44912;52.754;5.994;2023-03-23T11:00:41;14.10;99.90
59128;DHT22;44912;52.754;5.994;2023-03-23T11:03:23;14.30;99.90
59128;DHT22;44912;52.754;5.994;2023-03-23T11:05:54;14.70;99.90
59128;DHT22;44912;52.754;5.994;2023-03-23T11:08:25;14.70;99.90
59128;DHT22;44912;52.754;5.994;2023-03-23T11:10:57;14.80;99.90
59128;DHT22;44912;52.754;5.994;2023-03-23T11:13:31;14.70;99.90
59128;DHT22;44912;52.754;5.994;2023-03-23T11:15:57;14.30;99.90
59128;DHT22;44912;52.754;5.994;2023-03-23T11:18:26;14.00;99.90
59128;DHT22;44912;52.754;5.994;2023-03-23T11:20:57;13.90;99.90
59128;DHT22;44912;52.754;5.994;2023-03-23T11:23:35;14.00;99.90
59128;DHT22;44912;52.754;5.994;2023-03-23T11:26:10;14.10;99.90
59128;DHT22;44912;52.754;5.994;2023-03-23T11:28:41;14.00;99.90
59128;DHT22;44912;52.754;5.994;2023-03-23T11:31:08;13.80;99.90
59128;DHT22;44912;52.754;5.994;2023-03-23T11:34:00;13.60;99.90
59128;DHT22;44912;52.754;5.994;2023-03-23T11:36:33;13.60;99.90
59128;DHT22;44912;52.754;5.994;2023-03-23T11:38:59;13.80;99.90
59128;DHT22;44912;52.754;5.994;2023-03-23T11:41:31;14.10;99.90
59128;DHT22;44912;52.754;5.994;2023-03-23T11:43:57;14.10;99.90
59128;DHT22;44912;52.754;5.994;2023-03-23T11:46:34;14.20;99.90
59128;DHT22;44912;52.754;5.994;2023-03-23T11:49:05;14.40;99.90
59128;DHT22;44912;52.754;5.994;2023-03-23T11:51:47;14.40;99.90
59128;DHT22;44912;52.754;5.994;2023-03-23T11:54:31;14.50;99.90
59128;DHT22;44912;52.754;5.994;2023-03-23T11:56:57;14.60;99.90
59128;DHT22;44912;52.754;5.994;2023-03-23T11:59:32;14.60;99.90
59128;DHT22;44912;52.754;5.994;2023-03-23T12:13:13;15.00;99.90
59128;DHT22;44912;52.754;5.994;2023-03-23T12:18:43;15.20;99.90
59128;DHT22;44912;52.754;5.994;2023-03-23T12:21:34;15.10;99.90
59128;DHT22;44912;52.754;5.994;2023-03-23T12:24:11;15.10;99.90
59128;DHT22;44912;52.754;5.994;2023-03-23T12:29:40;15.20;99.90
59128;DHT22;44912;52.754;5.994;2023-03-23T12:32:26;15.20;99.90
59128;DHT22;44912;52.754;5.994;2023-03-23T12:38:22;15.40;99.90
59128;DHT22;44912;52.754;5.994;2023-03-23T12:41:55;15.00;99.90
59128;DHT22;44912;52.754;5.994;2023-03-23T12:44:08;14.80;99.90
59128;DHT22;44912;52.754;5.994;2023-03-23T12:54:19;15.30;99.90
59128;DHT22;44912;52.754;5.994;2023-03-23T12:57:02;15.40;99.90
59128;DHT22;44912;52.754;5.994;2023-03-23T12:59:42;15.40;99.90
59128;DHT22;44912;52.754;5.994;2023-03-23T13:02:19;15.20;99.90
59128;DHT22;44912;52.754;5.994;2023-03-23T13:04:55;15.10;99.90
59128;DHT22;44912;52.754;5.994;2023-03-23T13:07:28;15.10;99.90
59128;DHT22;44912;52.754;5.994;2023-03-23T13:10:27;15.30;99.90
59128;DHT22;44912;52.754;5.994;2023-03-23T13:12:53;15.10;99.90
59128;DHT22;44912;52.754;5.994;2023-03-23T13:18:37;15.00;99.90
59128;DHT22;44912;52.754;5.994;2023-03-23T13:23:45;14.60;99.90
59128;DHT22;44912;52.754;5.994;2023-03-23T13:26:17;14.40;99.90
59128;DHT22;44912;52.754;5.994;2023-03-23T13:31:33;14.50;99.90
59128;DHT22;44912;52.754;5.994;2023-03-23T13:36:43;14.70;99.90
59128;DHT22;44912;52.754;5.994;2023-03-23T13:39:29;14.80;99.90
59128;DHT22;44912;52.754;5.994;2023-03-23T13:42:03;14.80;99.90
59128;DHT22;44912;52.754;5.994;2023-03-23T13:52:51;14.80;99.90
59128;DHT22;44912;52.754;5.994;2023-03-23T14:07:57;14.20;99.90
59128;DHT22;44912;52.754;5.994;2023-03-23T14:10:34;14.20;99.90
59128;DHT22;44912;52.754;5.994;2023-03-23T14:13:01;14.30;99.90
59128;DHT22;44912;52.754;5.994;2023-03-23T14:15:29;14.50;99.90
59128;DHT22;44912;52.754;5.994;2023-03-23T14:17:55;14.60;99.90
59128;DHT22;44912;52.754;5.994;2023-03-23T14:20:26;14.50;99.90
59128;DHT22;44912;52.754;5.994;2023-03-23T14:22:56;14.40;99.90
59128;DHT22;44912;52.754;5.994;2023-03-23T14:25:22;14.50;99.90
59128;DHT22;44912;52.754;5.994;2023-03-23T14:27:51;14.70;99.90
59128;DHT22;44912;52.754;5.994;2023-03-23T14:30:26;14.70;99.90
59128;DHT22;44912;52.754;5.994;2023-03-23T14:32:54;14.80;99.90
59128;DHT22;44912;52.754;5.994;2023-03-23T14:35:33;14.80;99.90
59128;DHT22;44912;52.754;5.994;2023-03-23T14:37:59;14.80;99.90
59128;DHT22;44912;52.754;5.994;2023-03-23T14:40:29;14.80;99.90
59128;DHT22;44912;52.754;5.994;2023-03-23T14:42:56;14.80;99.90
59128;DHT22;44912;52.754;5.994;2023-03-23T14:45:23;14.80;99.90
59128;DHT22;44912;52.754;5.994;2023-03-23T14:47:56;14.80;99.90
59128;DHT22;44912;52.754;5.994;2023-03-23T14:50:48;14.70;99.90
59128;DHT22;44912;52.754;5.994;2023-03-23T14:53:23;14.80;99.90
59128;DHT22;44912;52.754;5.994;2023-03-23T14:55:50;14.80;99.90
59128;DHT22;44912;52.754;5.994;2023-03-23T14:58:21;14.80;99.90
59128;DHT22;44912;52.754;5.994;2023-03-23T15:00:57;14.80;99.90
59128;DHT22;44912;52.754;5.994;2023-03-23T15:03:24;14.80;99.90
59128;DHT22;44912;52.754;5.994;2023-03-23T15:05:58;14.70;99.90
59128;DHT22;44912;52.754;5.994;2023-03-23T15:08:25;14.60;99.90
59128;DHT22;44912;52.754;5.994;2023-03-23T15:13:29;14.80;99.90
59128;DHT22;44912;52.754;5.994;2023-03-23T15:16:05;14.80;99.90
59128;DHT22;44912;52.754;5.994;2023-03-23T15:18:37;14.80;99.90
59128;DHT22;44912;52.754;5.994;2023-03-23T15:21:18;14.70;99.90
59128;DHT22;44912;52.754;5.994;2023-03-23T15:23:44;14.80;99.90
59128;DHT22;44912;52.754;5.994;2023-03-23T15:31:33;14.80;99.90
59128;DHT22;44912;52.754;5.994;2023-03-23T15:34:02;14.80;99.90
59128;DHT22;44912;52.754;5.994;2023-03-23T15:36:32;14.80;99.90
59128;DHT22;44912;52.754;5.994;2023-03-23T15:38:59;14.90;99.90
59128;DHT22;44912;52.754;5.994;2023-03-23T15:41:30;14.90;99.90
59128;DHT22;44912;52.754;5.994;2023-03-23T15:43:58;14.80;99.90
59128;DHT22;44912;52.754;5.994;2023-03-23T15:46:25;14.90;99.90
59128;DHT22;44912;52.754;5.994;2023-03-23T15:48:52;14.90;99.90
59128;DHT22;44912;52.754;5.994;2023-03-23T15:51:24;15.00;99.90
59128;DHT22;44912;52.754;5.994;2023-03-23T15:53:52;15.10;99.90
59128;DHT22;44912;52.754;5.994;2023-03-23T15:56:18;15.10;99.90
59128;DHT22;44912;52.754;5.994;2023-03-23T15:58:44;15.10;99.90
59128;DHT22;44912;52.754;5.994;2023-03-23T16:01:22;15.00;99.90
59128;DHT22;44912;52.754;5.994;2023-03-23T16:03:55;14.70;99.90
59128;DHT22;44912;52.754;5.994;2023-03-23T16:06:23;14.50;99.90
59128;DHT22;44912;52.754;5.994;2023-03-23T16:08:50;14.30;99.90
59128;DHT22;44912;52.754;5.994;2023-03-23T16:11:17;14.20;99.90
59128;DHT22;44912;52.754;5.994;2023-03-23T16:13:43;14.10;99.90
59128;DHT22;44912;52.754;5.994;2023-03-23T16:16:14;14.10;99.90
59128;DHT22;44912;52.754;5.994;2023-03-23T16:18:41;14.00;99.90
59128;DHT22;44912;52.754;5.994;2023-03-23T16:21:07;14.00;99.90
59128;DHT22;44912;52.754;5.994;2023-03-23T16:23:32;14.00;99.90
59128;DHT22;44912;52.754;5.994;2023-03-23T16:25:58;14.10;99.90
59128;DHT22;44912;52.754;5.994;2023-03-23T16:28:23;14.20;99.90
59128;DHT22;44912;52.754;5.994;2023-03-23T16:30:49;14.60;99.90
59128;DHT22;44912;52.754;5.994;2023-03-23T16:33:14;14.90;99.90
59128;DHT22;44912;52.754;5.994;2023-03-23T16:35:40;15.00;99.90
59128;DHT22;44912;52.754;5.994;2023-03-23T16:38:07;14.90;99.90
59128;DHT22;44912;52.754;5.994;2023-03-23T16:40:38;14.80;99.90
59128;DHT22;44912;52.754;5.994;2023-03-23T16:43:04;14.50;99.90
59128;DHT22;44912;52.754;5.994;2023-03-23T16:45:30;14.30;99.90
59128;DHT22;44912;52.754;5.994;2023-03-23T16:47:56;14.10;99.90
59128;DHT22;44912;52.754;5.994;2023-03-23T16:50:27;14.00;99.90
59128;DHT22;44912;52.754;5.994;2023-03-23T16:52:53;13.90;99.90
59128;DHT22;44912;52.754;5.994;2023-03-23T16:55:18;13.80;99.90
59128;DHT22;44912;52.754;5.994;2023-03-23T16:57:44;13.80;99.90
59128;DHT22;44912;52.754;5.994;2023-03-23T17:00:15;13.70;99.90
59128;DHT22;44912;52.754;5.994;2023-03-23T17:02:45;13.70;99.90
59128;DHT22;44912;52.754;5.994;2023-03-23T17:05:11;13.70;99.90
59128;DHT22;44912;52.754;5.994;2023-03-23T17:07:38;13.80;99.90
59128;DHT22;44912;52.754;5.994;2023-03-23T17:10:05;13.80;99.90
59128;DHT22;44912;52.754;5.994;2023-03-23T17:12:32;13.80;99.90
59128;DHT22;44912;52.754;5.994;2023-03-23T17:14:58;13.80;99.90
59128;DHT22;44912;52.754;5.994;2023-03-23T17:17:23;13.90;99.90
59128;DHT22;44912;52.754;5.994;2023-03-23T17:19:49;13.90;99.90
59128;DHT22;44912;52.754;5.994;2023-03-23T17:22:15;13.90;99.90
59128;DHT22;44912;52.754;5.994;2023-03-23T17:24:41;13.90;99.90